createdAt,value
2023-02-11T00:00:28.169Z,99997.25
2023-02-11T00:01:34.048Z,99991.94
2023-02-11T00:02:37.272Z,99979.97
2023-02-11T00:03:40.380Z,99990.34
2023-02-11T00:04:43.515Z,99981.03
2023-02-11T00:05:46.681Z,99985.84
2023-02-11T00:06:49.682Z,99984.59
2023-02-11T00:07:52.820Z,99980.19
2023-02-11T00:08:56.634Z,99986.13
2023-02-11T00:10:00.262Z,99985.34
2023-02-11T00:11:04.069Z,99981.16
2023-02-11T00:12:07.096Z,99980.09
2023-02-11T00:13:10.055Z,99977.97
2023-02-11T00:14:13.140Z,99983.34
2023-02-11T00:15:16.148Z,99978.47
2023-02-11T00:16:21.866Z,99973.41
2023-02-11T00:17:26.133Z,99970.84
2023-02-11T00:18:29.184Z,99981.13
2023-02-11T00:19:32.366Z,99970.03
2023-02-11T00:20:35.349Z,99969.94
2023-02-11T00:21:38.460Z,99970.47
2023-02-11T00:22:41.589Z,99966.59
2023-02-11T00:23:46.226Z,99968.13
2023-02-11T00:24:49.345Z,99959.31
2023-02-11T00:25:52.839Z,99964.66
2023-02-11T00:26:56.389Z,99965.88
2023-02-11T00:28:00.020Z,99961.25
2023-02-11T00:29:05.030Z,99966.44
2023-02-11T00:30:08.981Z,99963.56
2023-02-11T00:31:13.228Z,99963.56
2023-02-11T00:32:16.381Z,99957.03
2023-02-11T00:33:19.500Z,99966.00
2023-02-11T00:34:22.828Z,99964.84
2023-02-11T00:35:25.923Z,99966.59
2023-02-11T00:36:29.906Z,99962.75
2023-02-11T00:37:36.696Z,99963.50
2023-02-11T00:38:39.897Z,99958.56
2023-02-11T00:39:43.033Z,99952.88
2023-02-11T00:40:46.197Z,99968.69
2023-02-11T00:41:49.323Z,99952.03
2023-02-11T00:42:52.520Z,99950.31
2023-02-11T00:43:55.487Z,99960.63
2023-02-11T00:44:58.673Z,99956.88
2023-02-11T00:46:01.686Z,99951.31
2023-02-11T00:47:04.815Z,99950.00
2023-02-11T00:48:07.822Z,99957.38
2023-02-11T00:49:11.150Z,99953.75
2023-02-11T00:50:14.230Z,99957.88
2023-02-11T00:51:17.775Z,99961.19
2023-02-11T00:52:20.877Z,99957.81
2023-02-11T00:53:24.168Z,99963.94
2023-02-11T00:54:29.873Z,99966.75
2023-02-11T00:55:33.188Z,99962.25
2023-02-11T00:56:36.350Z,99953.16
2023-02-11T00:57:39.384Z,99957.50
2023-02-11T00:58:42.589Z,99963.81
2023-02-11T00:59:45.667Z,99959.19
2023-02-11T01:00:49.570Z,99948.34
2023-02-11T01:01:52.851Z,99951.66
2023-02-11T01:02:56.359Z,99946.28
2023-02-11T01:03:59.550Z,99942.38
2023-02-11T01:05:02.761Z,99940.44
2023-02-11T01:06:08.211Z,99944.62
2023-02-11T01:07:11.579Z,99940.28
2023-02-11T01:08:14.667Z,99935.94
2023-02-11T01:09:18.159Z,99933.69
2023-02-11T01:10:21.285Z,99928.44
2023-02-11T01:11:24.463Z,99935.28
2023-02-11T01:12:27.498Z,99936.72
2023-02-11T01:13:33.058Z,99938.03
2023-02-11T01:14:36.122Z,99929.34
2023-02-11T01:15:39.422Z,99923.66
2023-02-11T01:16:42.663Z,99929.91
2023-02-11T01:17:45.940Z,99922.31
2023-02-11T01:18:49.676Z,99913.38
2023-02-11T01:19:52.870Z,99917.31
2023-02-11T01:20:57.115Z,99918.84
2023-02-11T01:22:00.257Z,99910.72
2023-02-11T01:23:03.346Z,99911.41
2023-02-11T01:24:06.918Z,99916.16
2023-02-11T01:25:10.665Z,99913.00
2023-02-11T01:26:14.161Z,99914.09
2023-02-11T01:27:17.494Z,99911.75
2023-02-11T01:28:26.470Z,99915.03
2023-02-11T01:29:29.422Z,99913.47
2023-02-11T01:30:32.709Z,99907.97
2023-02-11T01:31:36.074Z,99908.28
2023-02-11T01:32:39.265Z,99903.50
2023-02-11T01:33:42.462Z,99903.38
2023-02-11T01:34:45.456Z,99900.00
2023-02-11T01:35:49.018Z,99904.91
2023-02-11T01:36:56.862Z,99905.47
2023-02-11T01:37:59.885Z,99905.75
2023-02-11T01:39:02.975Z,99910.19
2023-02-11T01:40:11.621Z,99901.56
2023-02-11T01:41:15.462Z,99911.50
2023-02-11T01:42:22.650Z,99901.44
2023-02-11T01:43:28.428Z,99902.63
2023-02-11T01:44:38.264Z,99900.09
2023-02-11T01:45:50.044Z,99902.91
2023-02-11T01:46:54.170Z,99900.69
2023-02-11T01:47:57.623Z,99899.38
2023-02-11T01:49:09.916Z,99907.91
2023-02-11T01:50:13.661Z,99900.75
2023-02-11T01:51:22.476Z,99896.03
2023-02-11T01:52:39.405Z,99896.63
2023-02-11T01:54:02.406Z,99897.34
2023-02-11T01:55:32.856Z,99902.37
2023-02-11T01:56:58.823Z,99898.19
2023-02-11T01:58:05.554Z,99898.34
2023-02-11T01:59:33.624Z,99898.91
2023-02-11T02:00:39.306Z,99896.44
2023-02-11T02:01:48.860Z,99904.19
2023-02-11T02:03:13.474Z,99900.22
2023-02-11T02:04:19.391Z,99897.16
2023-02-11T02:06:07.424Z,99896.31
2023-02-11T02:07:17.514Z,99893.56
2023-02-11T02:08:50.621Z,99896.59
2023-02-11T02:10:06.285Z,99899.56
2023-02-11T02:11:10.023Z,99898.75
2023-02-11T02:12:12.988Z,99892.41
2023-02-11T02:13:16.519Z,99897.25
2023-02-11T02:14:19.925Z,99895.59
2023-02-11T02:15:26.734Z,99900.97
2023-02-11T02:16:36.776Z,99888.00
2023-02-11T02:17:57.495Z,99899.50
2023-02-11T02:19:07.014Z,99901.03
2023-02-11T02:20:10.144Z,99893.09
2023-02-11T02:21:34.967Z,99890.22
2023-02-11T02:23:03.844Z,99895.41
2023-02-11T02:24:45.053Z,99896.97
2023-02-11T02:26:09.451Z,99888.84
2023-02-11T02:27:18.704Z,99900.69
2023-02-11T02:28:59.630Z,99897.81
2023-02-11T02:30:46.343Z,99891.22
2023-02-11T02:32:37.337Z,99891.41
2023-02-11T02:33:43.365Z,99892.66
2023-02-11T02:35:10.544Z,99886.09
2023-02-11T02:36:35.054Z,99886.69
2023-02-11T02:37:43.865Z,99887.66
2023-02-11T02:38:54.978Z,99886.72
2023-02-11T02:40:03.660Z,99875.56
2023-02-11T02:41:17.145Z,99873.75
2023-02-11T02:42:21.363Z,99865.13
2023-02-11T02:43:27.871Z,99873.84
2023-02-11T02:44:31.644Z,99869.41
2023-02-11T02:45:34.778Z,99869.91
2023-02-11T02:46:38.018Z,99873.19
2023-02-11T02:47:41.383Z,99875.72
2023-02-11T02:48:45.786Z,99875.22
2023-02-11T02:49:48.824Z,99874.03
2023-02-11T02:51:00.698Z,99868.72
2023-02-11T02:52:47.881Z,99876.72
2023-02-11T02:54:09.581Z,99873.75
2023-02-11T02:55:35.378Z,99874.78
2023-02-11T02:56:52.141Z,99872.59
2023-02-11T02:58:31.084Z,99863.81
2023-02-11T02:59:58.874Z,99873.19
2023-02-11T03:01:14.113Z,99867.62
2023-02-11T03:02:47.404Z,99865.88
2023-02-11T03:04:05.931Z,99858.28
2023-02-11T03:05:35.660Z,99866.41
2023-02-11T03:06:58.781Z,99856.69
2023-02-11T03:08:16.629Z,99861.31
2023-02-11T03:09:40.353Z,99855.09
2023-02-11T03:10:50.957Z,99859.44
2023-02-11T03:11:54.448Z,99862.28
2023-02-11T03:12:58.571Z,99858.28
2023-02-11T03:14:05.093Z,99858.72
2023-02-11T03:15:09.168Z,99859.31
2023-02-11T03:16:18.694Z,99857.09
2023-02-11T03:17:24.040Z,99857.97
2023-02-11T03:18:30.125Z,99857.53
2023-02-11T03:19:44.190Z,99849.59
2023-02-11T03:20:52.671Z,99852.50
2023-02-11T03:21:57.673Z,99846.22
2023-02-11T03:23:13.608Z,99850.44
2023-02-11T03:24:24.754Z,99855.47
2023-02-11T03:25:34.120Z,99847.53
2023-02-11T03:26:49.132Z,99852.28
2023-02-11T03:28:18.602Z,99848.00
2023-02-11T03:29:44.449Z,99845.62
2023-02-11T03:31:05.985Z,99846.97
2023-02-11T03:32:25.261Z,99843.81
2023-02-11T03:33:33.801Z,99842.78
2023-02-11T03:34:45.883Z,99850.25
2023-02-11T03:35:57.059Z,99853.38
2023-02-11T03:37:14.912Z,99847.59
2023-02-11T03:38:26.540Z,99844.28
2023-02-11T03:39:36.873Z,99840.84
2023-02-11T03:40:43.941Z,99841.72
2023-02-11T03:41:49.305Z,99840.09
2023-02-11T03:42:58.978Z,99840.69
2023-02-11T03:44:03.378Z,99841.44
2023-02-11T03:45:11.196Z,99830.97
2023-02-11T03:46:18.071Z,99831.09
2023-02-11T03:47:26.387Z,99832.16
2023-02-11T03:48:37.347Z,99822.44
2023-02-11T03:49:43.843Z,99826.19
2023-02-11T03:50:48.713Z,99814.06
2023-02-11T03:51:55.249Z,99812.28
2023-02-11T03:53:02.443Z,99814.22
2023-02-11T03:54:09.902Z,99817.66
2023-02-11T03:55:17.906Z,99810.53
2023-02-11T03:56:24.069Z,99811.41
2023-02-11T03:57:27.310Z,99810.09
2023-02-11T03:58:31.151Z,99807.69
2023-02-11T03:59:54.208Z,99806.47
2023-02-11T04:00:57.548Z,99800.34
2023-02-11T04:02:00.732Z,99808.41
2023-02-11T04:03:07.663Z,99795.09
2023-02-11T04:04:11.235Z,99799.59
2023-02-11T04:05:16.722Z,99792.00
2023-02-11T04:06:19.934Z,99799.16
2023-02-11T04:07:23.655Z,99787.69
2023-02-11T04:08:26.918Z,99783.19
2023-02-11T04:09:30.375Z,99788.13
2023-02-11T04:10:34.088Z,99784.09
2023-02-11T04:11:37.225Z,99786.97
2023-02-11T04:12:40.423Z,99779.94
2023-02-11T04:13:43.367Z,99784.44
2023-02-11T04:14:46.444Z,99780.41
2023-02-11T04:15:49.781Z,99779.50
2023-02-11T04:16:53.126Z,99774.88
2023-02-11T04:17:56.058Z,99780.69
2023-02-11T04:18:59.306Z,99773.31
2023-02-11T04:20:02.505Z,99777.78
2023-02-11T04:21:05.932Z,99771.84
2023-02-11T04:22:09.468Z,99775.88
2023-02-11T04:23:12.698Z,99769.78
2023-02-11T04:24:15.901Z,99767.09
2023-02-11T04:25:18.975Z,99773.63
2023-02-11T04:26:22.081Z,99775.56
2023-02-11T04:27:25.205Z,99769.69
2023-02-11T04:28:29.925Z,99773.22
2023-02-11T04:29:33.115Z,99775.34
2023-02-11T04:30:36.292Z,99776.25
2023-02-11T04:31:39.235Z,99764.53
2023-02-11T04:32:42.401Z,99765.72
2023-02-11T04:33:45.428Z,99763.63
2023-02-11T04:34:48.671Z,99775.56
2023-02-11T04:35:52.004Z,99772.53
2023-02-11T04:36:55.431Z,99770.31
2023-02-11T04:37:58.698Z,99770.66
2023-02-11T04:39:01.936Z,99765.28
2023-02-11T04:40:05.396Z,99772.87
2023-02-11T04:41:08.457Z,99775.22
2023-02-11T04:42:11.630Z,99777.72
2023-02-11T04:43:14.628Z,99775.75
2023-02-11T04:44:17.680Z,99784.50
2023-02-11T04:45:20.861Z,99784.47
2023-02-11T04:46:23.886Z,99782.06
2023-02-11T04:47:26.857Z,99778.28
2023-02-11T04:48:29.986Z,99784.09
2023-02-11T04:49:33.184Z,99776.50
2023-02-11T04:50:36.352Z,99778.00
2023-02-11T04:51:39.498Z,99775.72
2023-02-11T04:52:42.488Z,99774.06
2023-02-11T04:53:45.485Z,99771.09
2023-02-11T04:54:48.428Z,99767.69
2023-02-11T04:55:51.820Z,99775.91
2023-02-11T04:56:55.077Z,99779.94
2023-02-11T04:57:58.239Z,99773.19
2023-02-11T04:59:01.438Z,99775.69
2023-02-11T05:00:05.497Z,99771.19
2023-02-11T05:01:10.494Z,99774.31
2023-02-11T05:02:13.504Z,99770.53
2023-02-11T05:03:16.958Z,99774.31
2023-02-11T05:04:20.246Z,99782.53
2023-02-11T05:05:23.296Z,99777.84
2023-02-11T05:06:26.519Z,99778.19
2023-02-11T05:07:29.604Z,99782.22
2023-02-11T05:08:33.258Z,99777.56
2023-02-11T05:09:36.338Z,99779.53
2023-02-11T05:10:39.501Z,99779.72
2023-02-11T05:11:42.932Z,99776.69
2023-02-11T05:12:48.880Z,99781.28
2023-02-11T05:13:52.433Z,99780.47
2023-02-11T05:14:55.500Z,99780.13
2023-02-11T05:15:58.828Z,99778.19
2023-02-11T05:17:01.810Z,99775.44
2023-02-11T05:18:05.156Z,99785.53
2023-02-11T05:19:09.103Z,99780.31
2023-02-11T05:20:12.388Z,99775.72
2023-02-11T05:21:18.861Z,99776.88
2023-02-11T05:22:22.396Z,99776.59
2023-02-11T05:23:25.384Z,99774.22
2023-02-11T05:24:28.380Z,99776.16
2023-02-11T05:25:31.384Z,99769.62
2023-02-11T05:26:34.479Z,99771.84
2023-02-11T05:27:37.429Z,99772.25
2023-02-11T05:28:41.547Z,99773.09
2023-02-11T05:29:44.827Z,99767.91
2023-02-11T05:30:48.137Z,99761.62
2023-02-11T05:31:51.283Z,99769.97
2023-02-11T05:32:54.631Z,99761.62
2023-02-11T05:33:57.738Z,99764.03
2023-02-11T05:35:00.973Z,99766.56
2023-02-11T05:36:08.549Z,99763.00
2023-02-11T05:37:12.165Z,99761.94
2023-02-11T05:38:15.508Z,99758.66
2023-02-11T05:39:18.586Z,99768.62
2023-02-11T05:40:21.880Z,99763.69
2023-02-11T05:41:24.965Z,99756.72
2023-02-11T05:42:28.310Z,99762.94
2023-02-11T05:43:31.541Z,99760.09
2023-02-11T05:44:34.579Z,99755.16
2023-02-11T05:45:37.667Z,99757.56
2023-02-11T05:46:40.788Z,99757.47
2023-02-11T05:47:44.716Z,99756.44
2023-02-11T05:48:47.921Z,99752.22
2023-02-11T05:49:53.959Z,99752.78
2023-02-11T05:50:57.301Z,99748.00
2023-02-11T05:52:00.457Z,99757.22
2023-02-11T05:53:03.643Z,99745.47
2023-02-11T05:54:06.983Z,99753.84
2023-02-11T05:55:09.905Z,99753.72
2023-02-11T05:56:14.949Z,99758.16
2023-02-11T05:57:18.625Z,99749.97
2023-02-11T05:58:21.686Z,99756.09
2023-02-11T05:59:24.996Z,99758.56
2023-02-11T06:00:28.026Z,99765.13
2023-02-11T06:01:31.204Z,99758.09
2023-02-11T06:02:34.759Z,99761.75
2023-02-11T06:03:38.036Z,99757.41
2023-02-11T06:04:41.841Z,99762.94
2023-02-11T06:05:45.921Z,99755.41
2023-02-11T06:06:49.648Z,99752.03
2023-02-11T06:07:53.580Z,99758.16
2023-02-11T06:08:56.790Z,99759.47
2023-02-11T06:09:59.898Z,99761.28
2023-02-11T06:11:03.028Z,99767.22
2023-02-11T06:12:06.600Z,99766.47
2023-02-11T06:13:09.769Z,99762.16
2023-02-11T06:14:12.840Z,99762.16
2023-02-11T06:15:15.948Z,99763.34
2023-02-11T06:16:19.269Z,99754.97
2023-02-11T06:17:23.581Z,99767.06
2023-02-11T06:18:26.981Z,99761.88
2023-02-11T06:19:31.357Z,99756.25
2023-02-11T06:20:34.536Z,99753.88
2023-02-11T06:21:43.932Z,99757.44
2023-02-11T06:22:47.532Z,99751.75
2023-02-11T06:23:50.715Z,99752.03
2023-02-11T06:25:01.327Z,99752.03
2023-02-11T06:26:07.152Z,99746.53
2023-02-11T06:27:10.164Z,99737.31
2023-02-11T06:28:13.557Z,99731.31
2023-02-11T06:29:16.787Z,99740.25
2023-02-11T06:30:19.848Z,99742.78
2023-02-11T06:31:22.817Z,99739.53
2023-02-11T06:32:45.533Z,99741.03
2023-02-11T06:33:50.455Z,99741.59
2023-02-11T06:34:53.499Z,99745.94
2023-02-11T06:35:56.525Z,99759.03
2023-02-11T06:36:59.777Z,99763.66
2023-02-11T06:38:02.966Z,99762.44
2023-02-11T06:39:06.274Z,99758.03
2023-02-11T06:40:11.478Z,99747.00
2023-02-11T06:41:16.693Z,99742.09
2023-02-11T06:42:19.750Z,99737.75
2023-02-11T06:43:23.249Z,99741.63
2023-02-11T06:44:26.330Z,99747.03
2023-02-11T06:45:29.473Z,99740.03
2023-02-11T06:46:32.761Z,99742.59
2023-02-11T06:47:35.981Z,99739.00
2023-02-11T06:48:39.080Z,99742.75
2023-02-11T06:49:42.464Z,99732.75
2023-02-11T06:50:45.577Z,99733.22
2023-02-11T06:51:48.624Z,99733.81
2023-02-11T06:52:51.673Z,99744.13
2023-02-11T06:53:55.494Z,99740.97
2023-02-11T06:54:58.606Z,99743.53
2023-02-11T06:56:06.674Z,99735.00
2023-02-11T06:57:09.840Z,99742.94
2023-02-11T06:58:13.230Z,99742.19
2023-02-11T06:59:18.736Z,99745.34
2023-02-11T07:00:21.926Z,99745.91
2023-02-11T07:01:26.201Z,99738.19
2023-02-11T07:02:29.825Z,99742.50
2023-02-11T07:03:36.497Z,99745.62
2023-02-11T07:04:39.377Z,99742.94
2023-02-11T07:05:44.989Z,99733.69
2023-02-11T07:06:48.209Z,99732.53
2023-02-11T07:07:51.609Z,99735.50
2023-02-11T07:08:56.037Z,99735.78
2023-02-11T07:09:58.941Z,99734.91
2023-02-11T07:11:02.168Z,99738.19
2023-02-11T07:12:05.349Z,99737.00
2023-02-11T07:13:08.529Z,99739.97
2023-02-11T07:14:13.600Z,99733.72
2023-02-11T07:15:16.770Z,99732.81
2023-02-11T07:16:20.512Z,99731.59
2023-02-11T07:17:23.773Z,99733.41
2023-02-11T07:18:26.915Z,99729.06
2023-02-11T07:19:29.993Z,99733.84
2023-02-11T07:20:33.155Z,99735.94
2023-02-11T07:21:36.330Z,99733.84
2023-02-11T07:22:39.314Z,99726.37
2023-02-11T07:23:42.742Z,99735.78
2023-02-11T07:24:46.200Z,99740.53
2023-02-11T07:25:49.594Z,99738.75
2023-02-11T07:26:54.040Z,99741.72
2023-02-11T07:27:57.276Z,99750.50
2023-02-11T07:29:00.445Z,99741.37
2023-02-11T07:30:07.252Z,99744.22
2023-02-11T07:31:22.652Z,99740.13
2023-02-11T07:32:25.654Z,99734.25
2023-02-11T07:33:28.659Z,99741.97
2023-02-11T07:34:31.940Z,99732.81
2023-02-11T07:35:35.088Z,99734.91
2023-02-11T07:36:38.403Z,99733.38
2023-02-11T07:37:41.953Z,99733.03
2023-02-11T07:38:45.244Z,99730.44
2023-02-11T07:39:48.560Z,99733.25
2023-02-11T07:40:51.681Z,99722.12
2023-02-11T07:41:55.329Z,99729.59
2023-02-11T07:42:58.463Z,99722.09
2023-02-11T07:44:04.008Z,99734.94
2023-02-11T07:45:08.123Z,99734.28
2023-02-11T07:46:25.691Z,99723.78
2023-02-11T07:47:28.836Z,99727.06
2023-02-11T07:48:32.372Z,99726.16
2023-02-11T07:49:35.503Z,99729.41
2023-02-11T07:50:38.643Z,99733.13
2023-02-11T07:51:42.260Z,99733.41
2023-02-11T07:52:45.258Z,99729.06
2023-02-11T07:53:48.421Z,99736.22
2023-02-11T07:54:51.619Z,99725.25
2023-02-11T07:55:54.626Z,99726.84
2023-02-11T07:56:57.660Z,99716.16
2023-02-11T07:58:00.710Z,99718.25
2023-02-11T07:59:04.305Z,99716.47
2023-02-11T08:00:08.142Z,99718.13
2023-02-11T08:01:14.580Z,99719.31
2023-02-11T08:02:17.642Z,99712.28
2023-02-11T08:03:20.724Z,99707.44
2023-02-11T08:04:23.997Z,99715.62
2023-02-11T08:05:27.033Z,99713.31
2023-02-11T08:06:33.054Z,99712.09
2023-02-11T08:07:36.102Z,99717.31
2023-02-11T08:08:39.477Z,99715.62
2023-02-11T08:09:42.823Z,99714.69
2023-02-11T08:10:45.912Z,99717.50
2023-02-11T08:11:49.000Z,99706.47
2023-02-11T08:12:52.161Z,99715.16
2023-02-11T08:13:56.630Z,99710.78
2023-02-11T08:14:59.873Z,99714.50
2023-02-11T08:16:05.751Z,99706.94
2023-02-11T08:17:08.878Z,99705.25
2023-02-11T08:18:11.813Z,99711.47
2023-02-11T08:19:17.112Z,99711.31
2023-02-11T08:20:20.063Z,99712.31
2023-02-11T08:21:24.785Z,99712.13
2023-02-11T08:22:27.706Z,99712.37
2023-02-11T08:23:30.659Z,99718.09
2023-02-11T08:24:33.762Z,99710.47
2023-02-11T08:25:37.003Z,99716.88
2023-02-11T08:26:41.287Z,99710.81
2023-02-11T08:27:44.398Z,99711.06
2023-02-11T08:28:49.029Z,99709.59
2023-02-11T08:29:52.855Z,99711.53
2023-02-11T08:30:55.963Z,99708.66
2023-02-11T08:31:59.067Z,99708.66
2023-02-11T08:33:02.564Z,99713.59
2023-02-11T08:34:05.963Z,99713.59
2023-02-11T08:35:09.740Z,99716.75
2023-02-11T08:36:16.614Z,99713.19
2023-02-11T08:37:20.611Z,99709.25
2023-02-11T08:38:23.761Z,99708.06
2023-02-11T08:39:26.682Z,99717.19
2023-02-11T08:40:29.950Z,99719.41
2023-02-11T08:41:33.722Z,99714.38
2023-02-11T08:42:37.042Z,99719.37
2023-02-11T08:43:41.955Z,99721.59
2023-02-11T08:44:45.090Z,99718.87
2023-02-11T08:45:48.109Z,99724.59
2023-02-11T08:46:52.165Z,99721.13
2023-02-11T08:47:55.407Z,99720.66
2023-02-11T08:48:58.689Z,99713.09
2023-02-11T08:50:01.811Z,99712.41
2023-02-11T08:51:13.679Z,99716.63
2023-02-11T08:52:16.756Z,99709.97
2023-02-11T08:53:19.872Z,99702.88
2023-02-11T08:54:22.918Z,99705.88
2023-02-11T08:55:26.386Z,99712.00
2023-02-11T08:56:31.616Z,99700.72
2023-02-11T08:57:34.796Z,99708.91
2023-02-11T08:58:38.155Z,99711.94
2023-02-11T08:59:41.331Z,99703.81
2023-02-11T09:00:45.637Z,99708.75
2023-02-11T09:01:48.852Z,99701.41
2023-02-11T09:02:52.158Z,99715.47
2023-02-11T09:03:55.863Z,99702.69
2023-02-11T09:04:59.024Z,99706.63
2023-02-11T09:06:06.971Z,99709.16
2023-02-11T09:07:10.036Z,99711.44
2023-02-11T09:08:14.124Z,99698.19
2023-02-11T09:09:17.935Z,99711.97
2023-02-11T09:10:20.967Z,99700.47
2023-02-11T09:11:33.597Z,99700.25
2023-02-11T09:12:36.838Z,99700.03
2023-02-11T09:13:42.739Z,99689.22
2023-02-11T09:14:45.730Z,99691.50
2023-02-11T09:15:48.824Z,99691.28
2023-02-11T09:16:53.524Z,99692.75
2023-02-11T09:17:56.985Z,99685.88
2023-02-11T09:19:02.222Z,99690.63
2023-02-11T09:20:05.647Z,99694.13
2023-02-11T09:21:10.300Z,99702.88
2023-02-11T09:22:13.411Z,99695.34
2023-02-11T09:23:18.568Z,99696.69
2023-02-11T09:24:21.662Z,99700.50
2023-02-11T09:25:25.381Z,99691.13
2023-02-11T09:26:31.188Z,99687.44
2023-02-11T09:27:34.900Z,99694.13
2023-02-11T09:28:38.008Z,99682.09
2023-02-11T09:29:41.224Z,99687.53
2023-02-11T09:30:44.568Z,99690.78
2023-02-11T09:31:47.782Z,99688.56
2023-02-11T09:32:51.169Z,99681.72
2023-02-11T09:33:57.373Z,99693.34
2023-02-11T09:35:00.591Z,99691.66
2023-02-11T09:36:05.062Z,99692.94
2023-02-11T09:37:08.919Z,99692.22
2023-02-11T09:38:11.912Z,99688.03
2023-02-11T09:39:18.166Z,99684.38
2023-02-11T09:40:21.713Z,99680.94
2023-02-11T09:41:24.777Z,99674.50
2023-02-11T09:42:46.676Z,99675.50
2023-02-11T09:43:56.452Z,99685.88
2023-02-11T09:45:01.570Z,99676.25
2023-02-11T09:46:05.932Z,99679.00
2023-02-11T09:47:36.456Z,99676.28
2023-02-11T09:48:43.320Z,99679.00
2023-02-11T09:49:50.869Z,99674.31
2023-02-11T09:50:59.086Z,99677.53
2023-02-11T09:52:07.643Z,99674.81
2023-02-11T09:53:14.736Z,99676.06
2023-02-11T09:54:34.839Z,99674.31
2023-02-11T09:55:43.466Z,99679.25
2023-02-11T09:56:46.716Z,99674.56
2023-02-11T09:57:49.992Z,99674.09
2023-02-11T09:58:54.822Z,99676.06
2023-02-11T09:59:58.370Z,99674.34
2023-02-11T10:01:59.104Z,99670.38
2023-02-11T10:03:26.847Z,99681.50
2023-02-11T10:04:38.146Z,99673.59
2023-02-11T10:06:06.393Z,99668.41
2023-02-11T10:07:15.244Z,99677.03
2023-02-11T10:08:41.711Z,99669.41
2023-02-11T10:10:20.261Z,99674.09
2023-02-11T10:11:49.510Z,99664.19
2023-02-11T10:13:04.068Z,99663.69
2023-02-11T10:14:06.978Z,99660.50
2023-02-11T10:15:21.952Z,99663.22
2023-02-11T10:16:48.858Z,99662.72
2023-02-11T10:18:32.348Z,99661.25
2023-02-11T10:20:09.039Z,99657.53
2023-02-11T10:21:36.553Z,99660.75
2023-02-11T10:22:49.677Z,99661.75
2023-02-11T10:23:57.617Z,99661.75
2023-02-11T10:25:01.242Z,99663.97
2023-02-11T10:26:12.113Z,99654.06
2023-02-11T10:27:20.165Z,99655.31
2023-02-11T10:28:51.675Z,99663.69
2023-02-11T10:30:05.366Z,99654.56
2023-02-11T10:31:44.020Z,99646.66
2023-02-11T10:33:04.840Z,99649.66
2023-02-11T10:34:13.421Z,99641.22
2023-02-11T10:35:21.778Z,99650.13
2023-02-11T10:36:30.506Z,99652.84
2023-02-11T10:37:33.825Z,99636.06
2023-02-11T10:38:37.461Z,99638.50
2023-02-11T10:39:41.563Z,99642.72
2023-02-11T10:40:44.810Z,99634.09
2023-02-11T10:42:12.490Z,99635.81
2023-02-11T10:43:27.233Z,99635.81
2023-02-11T10:44:37.925Z,99625.19
2023-02-11T10:45:45.756Z,99631.38
2023-02-11T10:46:50.305Z,99625.44
2023-02-11T10:47:53.435Z,99619.75
2023-02-11T10:48:56.553Z,99624.94
2023-02-11T10:50:03.905Z,99626.66
2023-02-11T10:51:17.879Z,99619.00
2023-02-11T10:52:26.773Z,99617.00
2023-02-11T10:53:29.721Z,99613.97
2023-02-11T10:54:32.695Z,99613.97
2023-02-11T10:55:36.442Z,99617.44
2023-02-11T10:56:46.081Z,99619.16
2023-02-11T10:57:57.330Z,99610.97
2023-02-11T10:59:14.854Z,99613.44
2023-02-11T11:00:43.975Z,99620.31
2023-02-11T11:01:50.716Z,99610.69
2023-02-11T11:02:57.966Z,99616.59
2023-02-11T11:04:01.267Z,99607.44
2023-02-11T11:05:16.530Z,99609.63
2023-02-11T11:06:32.043Z,99605.59
2023-02-11T11:07:35.507Z,99604.47
2023-02-11T11:08:48.301Z,99597.78
2023-02-11T11:09:53.522Z,99593.50
2023-02-11T11:11:07.567Z,99591.03
2023-02-11T11:12:42.209Z,99593.03
2023-02-11T11:13:58.385Z,99586.16
2023-02-11T11:15:19.257Z,99587.88
2023-02-11T11:16:30.688Z,99579.94
2023-02-11T11:17:33.907Z,99579.38
2023-02-11T11:18:37.115Z,99573.19
2023-02-11T11:19:40.417Z,99570.44
2023-02-11T11:21:01.811Z,99568.66
2023-02-11T11:22:05.280Z,99570.53
2023-02-11T11:23:28.544Z,99560.09
2023-02-11T11:24:46.980Z,99571.59
2023-02-11T11:26:11.723Z,99567.84
2023-02-11T11:27:26.341Z,99567.16
2023-02-11T11:28:33.549Z,99564.63
2023-02-11T11:29:43.228Z,99563.66
2023-02-11T11:30:46.420Z,99565.66
2023-02-11T11:31:57.246Z,99565.38
2023-02-11T11:33:01.456Z,99566.37
2023-02-11T11:34:32.797Z,99565.44
2023-02-11T11:35:35.926Z,99565.38
2023-02-11T11:36:40.631Z,99555.47
2023-02-11T11:37:46.003Z,99553.28
2023-02-11T11:39:02.446Z,99545.69
2023-02-11T11:40:25.153Z,99551.06
2023-02-11T11:41:31.108Z,99547.38
2023-02-11T11:42:37.117Z,99542.72
2023-02-11T11:43:40.318Z,99545.50
2023-02-11T11:44:59.662Z,99542.91
2023-02-11T11:46:03.285Z,99541.91
2023-02-11T11:47:12.202Z,99540.84
2023-02-11T11:48:24.478Z,99536.72
2023-02-11T11:49:36.101Z,99536.94
2023-02-11T11:51:00.022Z,99537.00
2023-02-11T11:52:38.237Z,99532.31
2023-02-11T11:54:00.845Z,99532.44
2023-02-11T11:55:17.584Z,99525.22
2023-02-11T11:56:25.380Z,99529.88
2023-02-11T11:57:30.853Z,99519.34
2023-02-11T11:58:35.379Z,99527.34
2023-02-11T11:59:41.913Z,99521.16
2023-02-11T12:01:21.709Z,99520.37
2023-02-11T12:02:40.278Z,99520.75
2023-02-11T12:03:52.391Z,99524.59
2023-02-11T12:04:55.521Z,99522.31
2023-02-11T12:06:16.730Z,99522.53
2023-02-11T12:07:35.162Z,99507.72
2023-02-11T12:08:50.017Z,99510.66
2023-02-11T12:10:14.935Z,99504.53
2023-02-11T12:11:33.664Z,99506.00
2023-02-11T12:12:53.731Z,99495.34
2023-02-11T12:14:18.012Z,99494.22
2023-02-11T12:15:40.043Z,99487.69
2023-02-11T12:17:02.346Z,99499.41
2023-02-11T12:18:24.683Z,99487.09
2023-02-11T12:19:36.229Z,99479.44
2023-02-11T12:20:53.978Z,99485.63
2023-02-11T12:22:37.790Z,99480.44
2023-02-11T12:23:54.275Z,99466.06
2023-02-11T12:25:25.424Z,99469.41
2023-02-11T12:26:41.199Z,99463.50
2023-02-11T12:27:57.220Z,99457.09
2023-02-11T12:29:07.093Z,99457.28
2023-02-11T12:30:24.987Z,99451.31
2023-02-11T12:32:07.683Z,99455.09
2023-02-11T12:33:21.044Z,99448.09
2023-02-11T12:34:42.394Z,99449.63
2023-02-11T12:35:55.533Z,99461.50
2023-02-11T12:37:10.881Z,99455.78
2023-02-11T12:38:27.389Z,99454.28
2023-02-11T12:39:43.387Z,99446.56
2023-02-11T12:41:42.420Z,99447.31
2023-02-11T12:43:11.266Z,99448.31
2023-02-11T12:44:31.677Z,99451.78
2023-02-11T12:46:03.300Z,99448.31
2023-02-11T12:47:49.789Z,99449.72
2023-02-11T12:49:21.803Z,99439.78
2023-02-11T12:50:57.452Z,99452.81
2023-02-11T12:52:30.366Z,99461.13
2023-02-11T12:53:44.873Z,99454.81
2023-02-11T12:55:04.429Z,99445.06
2023-02-11T12:56:31.420Z,99433.72
2023-02-11T12:57:38.528Z,99430.91
2023-02-11T12:58:45.567Z,99426.25
2023-02-11T13:00:14.900Z,99437.25
2023-02-11T13:01:26.844Z,99438.16
2023-02-11T13:03:05.581Z,99434.00
2023-02-11T13:04:17.883Z,99432.69
2023-02-11T13:05:30.636Z,99427.09
2023-02-11T13:06:45.925Z,99426.44
2023-02-11T13:07:53.186Z,99427.63
2023-02-11T13:09:03.355Z,99421.84
2023-02-11T13:10:26.781Z,99422.56
2023-02-11T13:11:38.197Z,99425.81
2023-02-11T13:13:05.108Z,99426.03
2023-02-11T13:14:26.596Z,99422.28
2023-02-11T13:15:31.227Z,99424.75
2023-02-11T13:16:41.980Z,99418.31
2023-02-11T13:18:01.894Z,99418.81
2023-02-11T13:19:13.859Z,99415.50
2023-02-11T13:20:28.949Z,99420.03
2023-02-11T13:21:45.109Z,99422.44
2023-02-11T13:23:03.602Z,99413.22
2023-02-11T13:24:34.836Z,99412.25